Terminal Aerodrome Forecast
Issued by NWS

Home | Current Version | Previous Version | Text Only | Print | Product List | Glossary On
Versions: 1 2 3 4 5 6 7 8 9 10 11 12 13 14 15 16 17 18 19 20
000
FTUS46 KSEW 050304 AAA
TAFSEA
TAF AMD
KSEA 050304Z 0503/0606 36010KT P6SM SKC
     FM050400 03007KT P6SM SKC
     FM051800 35010KT P6SM SKC=

USA.gov is the U.S. government's official web portal to all federal, state and local government web resources and services.